createdAt,value
2022-12-06T00:02:13.464Z,-3.30
2022-12-06T00:03:21.165Z,-3.20
2022-12-06T00:04:26.162Z,-3.30
2022-12-06T00:05:27.973Z,-3.30
2022-12-06T00:24:53.434Z,-3.50
2022-12-06T00:26:26.068Z,-3.50
2022-12-06T00:27:54.193Z,-3.50
2022-12-06T00:32:20.121Z,-3.50
2022-12-06T00:33:39.882Z,-3.50
2022-12-06T00:34:49.363Z,-3.50
2022-12-06T00:37:04.467Z,-3.50
2022-12-06T00:38:41.637Z,-3.50
2022-12-06T00:51:23.296Z,-3.70
2022-12-06T00:52:53.243Z,-3.70
2022-12-06T00:54:00.051Z,-3.60
2022-12-06T00:55:10.299Z,-3.70
2022-12-06T00:58:13.559Z,-3.70
2022-12-06T01:04:11.017Z,-3.60
2022-12-06T01:05:35.465Z,-3.70
2022-12-06T01:25:51.958Z,-3.70
2022-12-06T02:47:57.517Z,-3.60
2022-12-06T02:49:02.179Z,-3.60
2022-12-06T02:50:13.106Z,-3.60
2022-12-06T02:51:20.823Z,-3.70
2022-12-06T02:52:45.912Z,-3.50
2022-12-06T02:53:57.181Z,-3.50
2022-12-06T03:24:35.598Z,-3.50
2022-12-06T03:26:07.239Z,-3.50
2022-12-06T03:27:17.192Z,-3.50
2022-12-06T03:28:24.569Z,-3.40
2022-12-06T04:06:08.339Z,-3.30
2022-12-06T04:20:15.683Z,-3.30
2022-12-06T04:33:08.544Z,-3.20
2022-12-06T05:03:18.011Z,-3.20
2022-12-06T05:09:20.699Z,-3.10
2022-12-06T05:12:07.290Z,-3.10
2022-12-06T05:13:12.148Z,-3.20
2022-12-06T05:14:24.716Z,-3.20
2022-12-06T05:39:36.208Z,-3.20
2022-12-06T05:40:46.395Z,-3.20
2022-12-06T05:41:48.135Z,-3.20
2022-12-06T05:42:50.063Z,-3.20
2022-12-06T05:43:54.111Z,-3.10
2022-12-06T05:45:00.136Z,-3.20
2022-12-06T05:46:03.606Z,-3.20
2022-12-06T05:47:11.547Z,-3.10
2022-12-06T05:48:13.243Z,-3.20
2022-12-06T05:49:22.917Z,-3.10
2022-12-06T05:51:07.658Z,-3.20
2022-12-06T05:56:43.005Z,-3.10
2022-12-06T05:58:22.046Z,-3.10
2022-12-06T05:59:49.605Z,-3.10
2022-12-06T06:01:04.295Z,-3.10
2022-12-06T06:02:13.293Z,-3.10
2022-12-06T06:04:59.885Z,-3.10
2022-12-06T06:06:32.028Z,-3.10
2022-12-06T06:10:19.556Z,-3.10
2022-12-06T06:12:15.604Z,-2.90
2022-12-06T06:13:28.396Z,-3.10
2022-12-06T06:16:14.912Z,-3.10
2022-12-06T06:18:31.257Z,-3.00
2022-12-06T06:20:00.229Z,-3.00
2022-12-06T06:21:05.049Z,-3.10
2022-12-06T06:22:14.945Z,-3.00
2022-12-06T06:23:24.562Z,-3.00
2022-12-06T06:24:47.319Z,-3.00
2022-12-06T06:26:03.611Z,-3.00
2022-12-06T06:28:44.799Z,-3.00
2022-12-06T06:30:31.217Z,-3.00
2022-12-06T06:31:55.749Z,-3.00
2022-12-06T06:34:30.648Z,-3.10
2022-12-06T06:35:39.645Z,-3.00
2022-12-06T06:36:50.986Z,-2.90
2022-12-06T06:38:19.217Z,-3.00
2022-12-06T06:39:36.830Z,-3.00
2022-12-06T06:40:59.522Z,-3.00
2022-12-06T06:43:33.295Z,-2.90
2022-12-06T06:46:29.332Z,-2.90
2022-12-06T06:48:08.941Z,-2.90
2022-12-06T06:50:20.053Z,-2.90
2022-12-06T06:53:26.574Z,-2.90
2022-12-06T06:54:30.076Z,-2.90
2022-12-06T07:00:26.146Z,-2.90
2022-12-06T07:01:34.134Z,-2.90
2022-12-06T07:02:41.558Z,-2.90
2022-12-06T07:03:52.081Z,-2.90
2022-12-06T07:14:53.459Z,-2.80
2022-12-06T07:16:04.623Z,-3.00
2022-12-06T07:17:25.961Z,-2.80
2022-12-06T07:18:35.574Z,-2.80
2022-12-06T07:21:39.126Z,-2.80
2022-12-06T07:22:43.425Z,-2.70
2022-12-06T07:23:45.264Z,-2.70
2022-12-06T07:24:54.965Z,-2.70
2022-12-06T07:26:07.346Z,-2.70
2022-12-06T07:27:32.536Z,-2.70
2022-12-06T07:29:07.219Z,-2.70
2022-12-06T07:30:16.843Z,-2.70
2022-12-06T07:31:22.618Z,-2.70
2022-12-06T07:32:26.315Z,-2.70
2022-12-06T07:33:34.906Z,-2.70
2022-12-06T07:34:38.324Z,-2.70
2022-12-06T07:36:10.948Z,-2.50
2022-12-06T07:37:03.297Z,-2.60
2022-12-06T07:38:07.661Z,-2.60
2022-12-06T07:39:14.814Z,-2.50
2022-12-06T07:40:30.654Z,-2.50
2022-12-06T07:42:00.430Z,-2.50
2022-12-06T07:43:20.944Z,-2.50
2022-12-06T07:44:42.502Z,-2.50
2022-12-06T07:45:45.854Z,-2.50
2022-12-06T07:46:49.908Z,-2.50
2022-12-06T07:47:53.012Z,-2.50
2022-12-06T07:48:56.283Z,-2.50
2022-12-06T07:49:59.371Z,-2.50
2022-12-06T07:51:05.590Z,-2.30
2022-12-06T07:52:08.231Z,-2.30
2022-12-06T07:53:12.484Z,-2.40
2022-12-06T07:54:19.404Z,-2.40
2022-12-06T07:55:23.225Z,-2.40
2022-12-06T07:56:26.173Z,-2.40
2022-12-06T07:57:31.434Z,-2.50
2022-12-06T07:58:34.630Z,-2.30
2022-12-06T07:59:37.224Z,-2.40
2022-12-06T08:00:42.308Z,-2.30
2022-12-06T08:01:46.438Z,-2.30
2022-12-06T08:02:49.212Z,-2.30
2022-12-06T08:03:54.466Z,-2.30
2022-12-06T08:04:58.922Z,-2.30
2022-12-06T08:06:03.975Z,-2.30
2022-12-06T08:07:06.334Z,-2.20
2022-12-06T08:08:17.784Z,-2.20
2022-12-06T08:09:26.060Z,-2.20
2022-12-06T08:10:37.877Z,-2.20
2022-12-06T08:11:41.547Z,-2.20
2022-12-06T08:12:46.851Z,-2.20
2022-12-06T08:13:49.514Z,-2.20
2022-12-06T08:14:54.166Z,-2.20
2022-12-06T08:16:00.193Z,-2.20
2022-12-06T08:17:05.206Z,-2.20
2022-12-06T08:18:07.694Z,-2.10
2022-12-06T08:19:11.791Z,-2.20
2022-12-06T08:20:19.882Z,-2.20
2022-12-06T08:22:47.926Z,-2.10
2022-12-06T08:23:56.188Z,-2.10
2022-12-06T08:25:14.791Z,-2.10
2022-12-06T08:26:43.081Z,-2.20
2022-12-06T08:27:47.500Z,-2.10
2022-12-06T08:28:54.831Z,-2.10
2022-12-06T08:30:07.428Z,-2.10
2022-12-06T08:33:24.747Z,-2.20
2022-12-06T08:34:32.756Z,-2.10
2022-12-06T08:35:53.879Z,-2.00
2022-12-06T08:37:06.233Z,-2.00
2022-12-06T08:38:15.060Z,-2.00
2022-12-06T08:39:22.074Z,-2.10
2022-12-06T08:40:24.999Z,-2.00
2022-12-06T08:41:53.990Z,-2.00
2022-12-06T08:42:57.754Z,-2.00
2022-12-06T08:44:12.262Z,-1.90
2022-12-06T08:45:14.661Z,-2.00
2022-12-06T08:46:18.316Z,-2.00
2022-12-06T08:47:21.564Z,-2.00
2022-12-06T08:48:26.433Z,-2.00
2022-12-06T08:49:29.327Z,-2.00
2022-12-06T08:50:31.470Z,-2.00
2022-12-06T08:51:33.942Z,-2.00
2022-12-06T08:52:39.653Z,-2.00
2022-12-06T08:53:43.210Z,-1.90
2022-12-06T08:54:45.487Z,-2.00
2022-12-06T08:56:01.962Z,-2.00
2022-12-06T08:57:13.748Z,-2.00
2022-12-06T08:58:20.145Z,-1.90
2022-12-06T09:00:46.635Z,-1.90
2022-12-06T09:01:50.701Z,-2.00
2022-12-06T09:02:56.853Z,-1.90
2022-12-06T09:04:06.308Z,-2.00
2022-12-06T09:05:09.703Z,-2.00
2022-12-06T09:06:12.209Z,-2.00
2022-12-06T09:07:19.521Z,-1.90
2022-12-06T09:08:24.416Z,-1.90
2022-12-06T09:09:32.059Z,-1.90
2022-12-06T09:10:33.946Z,-1.80
2022-12-06T09:11:36.084Z,-2.00
2022-12-06T09:12:38.743Z,-1.90
2022-12-06T09:13:40.938Z,-1.00
2022-12-06T09:14:43.421Z,-1.50
2022-12-06T09:15:46.149Z,-1.40
2022-12-06T09:16:48.050Z,-2.00
2022-12-06T09:17:49.968Z,-2.00
2022-12-06T09:18:53.697Z,-2.00
2022-12-06T09:19:55.347Z,-2.00
2022-12-06T09:20:57.658Z,-2.00
2022-12-06T09:21:59.772Z,-2.00
2022-12-06T09:23:01.552Z,-2.00
2022-12-06T09:24:03.446Z,-2.00
2022-12-06T09:25:05.547Z,-2.00
2022-12-06T09:26:07.776Z,-2.00
2022-12-06T09:27:09.418Z,-2.00
2022-12-06T09:28:11.812Z,-2.00
2022-12-06T09:29:13.704Z,-2.00
2022-12-06T09:30:15.844Z,-2.00
2022-12-06T09:31:19.083Z,-2.00
2022-12-06T09:32:20.907Z,-1.90
2022-12-06T09:33:24.599Z,-1.90
2022-12-06T09:34:29.460Z,-1.90
2022-12-06T09:35:31.629Z,-1.90
2022-12-06T09:36:39.539Z,-1.90
2022-12-06T09:38:10.743Z,-1.90
2022-12-06T09:39:20.005Z,-1.90
2022-12-06T09:44:55.812Z,-1.80
2022-12-06T09:47:13.056Z,-1.90
2022-12-06T09:48:13.998Z,-1.90
2022-12-06T09:49:35.948Z,-1.80
2022-12-06T09:50:48.695Z,-1.80
2022-12-06T09:52:08.985Z,-1.80
2022-12-06T09:53:16.826Z,-1.80
2022-12-06T09:54:27.903Z,-1.80
2022-12-06T09:55:43.625Z,-1.80
2022-12-06T09:56:48.828Z,-1.80
2022-12-06T09:58:16.426Z,-1.80
2022-12-06T10:00:12.081Z,-1.80
2022-12-06T10:03:20.736Z,-1.80
2022-12-06T10:04:41.488Z,-1.80
2022-12-06T10:06:33.718Z,-1.80
2022-12-06T10:07:51.885Z,-1.80
2022-12-06T10:09:03.676Z,-1.70
2022-12-06T10:10:50.134Z,-1.70
2022-12-06T10:12:07.956Z,-1.70
2022-12-06T10:14:50.081Z,-1.70
2022-12-06T10:16:01.970Z,-1.70
2022-12-06T10:17:22.830Z,-1.60
2022-12-06T10:18:31.158Z,-1.70
2022-12-06T10:19:41.793Z,-1.70
2022-12-06T10:21:12.513Z,-1.70
2022-12-06T10:22:32.773Z,-1.70
2022-12-06T10:23:50.058Z,-1.60
2022-12-06T10:25:16.886Z,-1.70
2022-12-06T10:26:40.076Z,-1.70
2022-12-06T10:27:44.854Z,-1.60
2022-12-06T10:28:48.908Z,-1.70
2022-12-06T10:29:54.871Z,-1.60
2022-12-06T10:31:00.551Z,-1.60
2022-12-06T10:32:12.964Z,-1.60
2022-12-06T10:33:37.951Z,-1.60
2022-12-06T10:34:49.140Z,-1.60
2022-12-06T10:36:04.637Z,-1.60
2022-12-06T10:37:29.442Z,-1.60
2022-12-06T10:38:31.196Z,-1.60
2022-12-06T10:39:51.861Z,-1.70
2022-12-06T10:41:16.551Z,-1.60
2022-12-06T10:42:18.317Z,-1.60
2022-12-06T10:43:34.101Z,-1.60
2022-12-06T10:44:41.171Z,-1.60
2022-12-06T10:46:08.895Z,-1.60
2022-12-06T10:47:15.204Z,-1.60
2022-12-06T10:48:33.386Z,-1.60
2022-12-06T10:49:37.348Z,-1.70
2022-12-06T10:50:40.182Z,-1.70
2022-12-06T10:52:02.070Z,-1.60
2022-12-06T10:53:12.647Z,-1.60
2022-12-06T10:54:34.922Z,-1.60
2022-12-06T10:55:41.317Z,-1.70
2022-12-06T10:56:43.754Z,-1.60
2022-12-06T10:57:52.609Z,-1.60
2022-12-06T10:58:57.640Z,-1.60
2022-12-06T11:00:11.829Z,-1.60
2022-12-06T11:01:18.921Z,-1.60
2022-12-06T11:02:26.523Z,-1.60
2022-12-06T11:03:34.501Z,-1.60
2022-12-06T11:04:36.933Z,-1.60
2022-12-06T11:05:44.182Z,-1.60
2022-12-06T11:07:08.828Z,-1.60
2022-12-06T11:08:12.803Z,-1.60
2022-12-06T11:09:30.432Z,-1.60
2022-12-06T11:10:34.083Z,-1.60
2022-12-06T11:11:37.173Z,-1.60
2022-12-06T11:12:39.058Z,-1.60
2022-12-06T11:13:43.926Z,-1.50
2022-12-06T11:14:47.954Z,-1.50
2022-12-06T11:15:56.464Z,-1.50
2022-12-06T11:17:07.212Z,-1.50
2022-12-06T11:18:11.575Z,-1.50
2022-12-06T11:19:21.982Z,-1.50
2022-12-06T11:20:25.035Z,-1.50
2022-12-06T11:21:30.318Z,-1.50
2022-12-06T11:22:44.847Z,-1.50
2022-12-06T11:23:46.733Z,-1.60
2022-12-06T11:24:56.413Z,-1.50
2022-12-06T11:26:20.962Z,-1.60
2022-12-06T11:27:42.956Z,-1.60
2022-12-06T11:29:00.041Z,-1.60
2022-12-06T11:30:03.187Z,-1.60
2022-12-06T11:31:15.378Z,-1.50
2022-12-06T11:32:19.849Z,-1.60
2022-12-06T11:33:26.110Z,-1.50
2022-12-06T11:34:50.930Z,-1.50
2022-12-06T11:35:52.948Z,-1.50
2022-12-06T11:37:00.194Z,-1.60
2022-12-06T11:38:03.263Z,-1.50
2022-12-06T11:39:05.274Z,-1.60
2022-12-06T11:40:26.122Z,-1.50
2022-12-06T11:41:30.179Z,-1.50
2022-12-06T11:42:31.861Z,-1.50
2022-12-06T11:43:36.011Z,-1.50
2022-12-06T11:44:44.935Z,-1.50
2022-12-06T11:45:51.348Z,-1.50
2022-12-06T11:46:54.868Z,-1.50
2022-12-06T11:47:59.243Z,-1.50
2022-12-06T11:49:16.298Z,-1.50
2022-12-06T11:50:19.087Z,-1.50
2022-12-06T11:51:23.853Z,-1.50
2022-12-06T11:52:37.105Z,-1.50
2022-12-06T11:53:44.407Z,-1.40
2022-12-06T11:54:51.903Z,-1.40
2022-12-06T11:55:55.673Z,-1.40
2022-12-06T11:56:59.615Z,-1.40
2022-12-06T11:58:03.084Z,-1.40
2022-12-06T11:59:08.418Z,-1.40
2022-12-06T12:00:12.517Z,-1.40
2022-12-06T12:01:14.332Z,-1.50
2022-12-06T12:02:29.970Z,-1.40
2022-12-06T12:03:33.733Z,-1.40
2022-12-06T12:04:38.238Z,-1.40
2022-12-06T12:05:39.929Z,-1.40
2022-12-06T12:06:41.584Z,-1.40
2022-12-06T12:07:45.658Z,-1.40
2022-12-06T12:09:06.248Z,-1.40
2022-12-06T12:10:27.734Z,-1.40
2022-12-06T12:11:31.083Z,-1.40
2022-12-06T12:13:07.640Z,-1.40
2022-12-06T12:14:24.064Z,-1.40
2022-12-06T12:15:27.781Z,-1.40
2022-12-06T12:16:34.607Z,-1.40
2022-12-06T12:17:36.396Z,-1.40
2022-12-06T12:18:40.143Z,-1.40
2022-12-06T12:19:41.849Z,-1.40
2022-12-06T12:20:45.923Z,-1.40
2022-12-06T12:21:53.856Z,-1.40
2022-12-06T12:23:01.675Z,-1.40
2022-12-06T12:24:04.654Z,-1.40
2022-12-06T12:25:23.348Z,-1.40
2022-12-06T12:26:33.961Z,-1.40
2022-12-06T12:27:38.278Z,-1.40
2022-12-06T12:28:41.237Z,-1.40
2022-12-06T12:30:08.759Z,-1.30
2022-12-06T12:31:21.546Z,-1.30
2022-12-06T12:33:09.028Z,-1.30
2022-12-06T12:34:20.290Z,-1.30
2022-12-06T12:35:24.009Z,-1.30
2022-12-06T12:37:23.479Z,-1.30
2022-12-06T12:38:48.920Z,-1.30
2022-12-06T12:39:54.868Z,-1.30
2022-12-06T12:41:21.697Z,-1.40
2022-12-06T12:42:35.268Z,-1.40
2022-12-06T12:43:37.068Z,-1.30
2022-12-06T12:44:53.929Z,-1.30
2022-12-06T12:46:04.653Z,-1.30
2022-12-06T12:47:15.510Z,-1.30
2022-12-06T12:48:24.694Z,-1.30
2022-12-06T12:49:31.305Z,-1.40
2022-12-06T12:50:34.179Z,-1.30
2022-12-06T12:51:49.285Z,-1.30
2022-12-06T12:52:55.878Z,-1.30
2022-12-06T12:54:23.826Z,-1.30
2022-12-06T12:55:28.831Z,-1.30
2022-12-06T12:56:40.470Z,-1.30
2022-12-06T12:57:59.418Z,-1.30
2022-12-06T12:59:06.231Z,-1.30
2022-12-06T13:00:14.486Z,-1.30
2022-12-06T13:01:25.509Z,-1.30
2022-12-06T13:02:29.364Z,-1.30
2022-12-06T13:05:33.351Z,-1.30
2022-12-06T13:06:40.774Z,-1.30
2022-12-06T13:07:43.392Z,-1.30
2022-12-06T13:08:45.505Z,-1.30
2022-12-06T13:09:50.847Z,-1.30
2022-12-06T13:10:58.876Z,-1.20
2022-12-06T13:12:11.740Z,-1.30
2022-12-06T13:13:19.262Z,-1.30
2022-12-06T13:14:22.530Z,-1.20
2022-12-06T13:15:28.697Z,-1.20
2022-12-06T13:16:34.041Z,-1.20
2022-12-06T13:17:36.636Z,-1.20
2022-12-06T13:18:44.165Z,-1.20
2022-12-06T13:19:53.062Z,-1.20
2022-12-06T13:20:56.797Z,-1.20
2022-12-06T13:22:00.857Z,-1.20
2022-12-06T13:23:19.559Z,-1.20
2022-12-06T13:24:26.759Z,-1.20
2022-12-06T13:25:28.563Z,-1.30
2022-12-06T13:26:33.563Z,-1.20
2022-12-06T13:27:43.569Z,-1.20
2022-12-06T13:28:48.550Z,-1.20
2022-12-06T13:29:56.634Z,-1.20
2022-12-06T13:31:04.468Z,-1.30
2022-12-06T13:32:29.247Z,-1.20
2022-12-06T13:33:33.794Z,-1.20
2022-12-06T13:34:39.209Z,-1.20
2022-12-06T13:35:43.137Z,-1.20
2022-12-06T13:36:44.807Z,-1.20
2022-12-06T13:37:52.195Z,-1.20
2022-12-06T13:38:56.024Z,-1.20
2022-12-06T13:39:58.145Z,-1.20
2022-12-06T13:41:00.974Z,-1.20
2022-12-06T13:42:19.706Z,-1.20
2022-12-06T13:43:24.391Z,-1.20
2022-12-06T13:44:42.106Z,-1.30
2022-12-06T13:45:45.606Z,-1.20
2022-12-06T13:46:47.327Z,-1.20
2022-12-06T13:47:49.816Z,-1.20
2022-12-06T13:48:55.005Z,-1.20
2022-12-06T13:49:56.996Z,-1.20
2022-12-06T13:50:59.813Z,-1.20
2022-12-06T13:52:01.446Z,-1.20
2022-12-06T13:53:03.229Z,-1.20
2022-12-06T13:54:05.118Z,-1.20
2022-12-06T13:55:25.094Z,-1.20
2022-12-06T13:56:28.869Z,-1.20
2022-12-06T13:57:31.199Z,-1.20
2022-12-06T13:58:32.808Z,-1.20
2022-12-06T13:59:38.184Z,-1.20
2022-12-06T14:00:40.167Z,-1.20
2022-12-06T14:01:42.083Z,-1.20
2022-12-06T14:02:45.113Z,-1.20
2022-12-06T14:03:54.214Z,-1.20
2022-12-06T14:04:55.841Z,-1.20
2022-12-06T14:06:15.249Z,-1.20
2022-12-06T14:07:31.017Z,-1.20
2022-12-06T14:08:38.819Z,-1.20
2022-12-06T14:09:45.439Z,-1.20
2022-12-06T14:10:47.078Z,-1.20
2022-12-06T14:11:48.694Z,-1.20
2022-12-06T14:12:58.478Z,-1.20
2022-12-06T14:14:03.604Z,-1.20
2022-12-06T14:15:05.778Z,-1.20
2022-12-06T14:16:08.991Z,-1.20
2022-12-06T14:17:26.713Z,-1.20
2022-12-06T14:18:34.701Z,-1.20
2022-12-06T14:19:45.930Z,-1.20
2022-12-06T14:20:49.505Z,-1.20
2022-12-06T14:21:55.883Z,-1.20
2022-12-06T14:22:57.672Z,-1.10
2022-12-06T14:23:59.364Z,-1.20
2022-12-06T14:25:02.778Z,-1.20
2022-12-06T14:26:10.802Z,-1.20
2022-12-06T14:27:14.093Z,-1.20
2022-12-06T14:28:15.778Z,-1.20
2022-12-06T14:29:24.801Z,-1.20
2022-12-06T14:30:26.715Z,-1.20
2022-12-06T14:31:34.593Z,-1.20
2022-12-06T14:32:46.606Z,-1.20
2022-12-06T14:33:48.527Z,-1.20
2022-12-06T14:34:50.867Z,-1.20
2022-12-06T14:35:53.270Z,-1.20
2022-12-06T14:36:55.521Z,-1.20
2022-12-06T14:37:58.816Z,-1.20
2022-12-06T14:39:06.924Z,-1.20
2022-12-06T14:40:44.600Z,-1.20
2022-12-06T14:42:08.767Z,-1.20
2022-12-06T14:43:15.497Z,-1.20
2022-12-06T14:44:17.836Z,-1.10
2022-12-06T14:45:19.586Z,-1.20
2022-12-06T14:46:22.203Z,-1.10
2022-12-06T14:47:23.972Z,-1.10
2022-12-06T14:48:25.654Z,-1.20
2022-12-06T14:49:57.336Z,-1.20
2022-12-06T14:50:58.961Z,-1.10
2022-12-06T14:52:00.653Z,-1.10
2022-12-06T14:53:04.126Z,-1.20
2022-12-06T14:54:18.441Z,-1.10
2022-12-06T14:55:20.446Z,-1.20
2022-12-06T14:56:30.494Z,-1.10
2022-12-06T14:57:35.985Z,-1.10
2022-12-06T14:58:41.226Z,-1.10
2022-12-06T15:01:05.617Z,-1.10
2022-12-06T15:02:24.082Z,-1.10
2022-12-06T15:03:26.047Z,-1.10
2022-12-06T15:04:41.030Z,-1.20
2022-12-06T15:05:49.864Z,-1.10
2022-12-06T15:06:57.455Z,-1.10
2022-12-06T15:07:59.339Z,-1.10
2022-12-06T15:09:01.100Z,-1.10
2022-12-06T15:10:10.542Z,-1.10
2022-12-06T15:11:12.175Z,-1.10
2022-12-06T15:12:39.500Z,-1.10
2022-12-06T15:13:41.110Z,-1.10
2022-12-06T15:14:47.355Z,-1.10
2022-12-06T15:15:52.338Z,-1.10
2022-12-06T15:16:58.335Z,-1.10
2022-12-06T15:18:23.174Z,-1.10
2022-12-06T15:19:24.953Z,-1.20
2022-12-06T15:20:26.662Z,-1.20
2022-12-06T15:21:28.336Z,-1.10
2022-12-06T15:22:29.987Z,-1.10
2022-12-06T15:23:36.282Z,-1.20
2022-12-06T15:24:38.017Z,-1.20
2022-12-06T15:25:39.636Z,-1.10
2022-12-06T15:26:41.394Z,-1.10
2022-12-06T15:27:43.035Z,-1.10
2022-12-06T15:28:44.882Z,-1.10
2022-12-06T15:29:46.587Z,-1.10
2022-12-06T15:30:48.874Z,-1.10
2022-12-06T15:31:52.457Z,-1.10
2022-12-06T15:32:54.320Z,-1.10
2022-12-06T15:33:56.158Z,-1.20
2022-12-06T15:34:57.819Z,-1.20
2022-12-06T15:35:59.664Z,-1.20
2022-12-06T15:37:36.825Z,-1.20
2022-12-06T15:38:23.226Z,-1.20
2022-12-06T15:39:25.379Z,-1.20
2022-12-06T15:40:28.442Z,-1.20
2022-12-06T15:41:30.070Z,-1.20
2022-12-06T15:42:31.756Z,-1.20
2022-12-06T15:43:34.606Z,-1.20
2022-12-06T15:44:36.245Z,-1.20
2022-12-06T15:45:37.866Z,-1.20
2022-12-06T15:46:40.056Z,-1.20
2022-12-06T15:47:41.853Z,-1.20
2022-12-06T15:50:51.235Z,-1.20
2022-12-06T15:52:06.804Z,-1.20
2022-12-06T15:53:16.573Z,-1.20
2022-12-06T15:54:22.498Z,-1.20
2022-12-06T15:55:25.490Z,-1.20
2022-12-06T15:56:31.358Z,-1.20
2022-12-06T15:57:33.875Z,-1.20
2022-12-06T15:58:51.832Z,-1.20
2022-12-06T16:00:03.641Z,-1.20
2022-12-06T16:01:29.201Z,-1.20
2022-12-06T16:02:45.059Z,-1.20
2022-12-06T16:03:52.606Z,-1.20
2022-12-06T16:04:57.620Z,-1.20
2022-12-06T16:06:11.285Z,-1.20
2022-12-06T16:07:19.487Z,-1.20
2022-12-06T16:08:33.533Z,-1.20
2022-12-06T16:09:41.870Z,-1.20
2022-12-06T16:11:11.443Z,-1.20
2022-12-06T16:12:13.125Z,-1.20
2022-12-06T16:13:25.896Z,-1.20
2022-12-06T16:14:30.358Z,-1.20
2022-12-06T16:15:36.896Z,-1.20
2022-12-06T16:16:43.255Z,-1.20
2022-12-06T16:17:54.977Z,-1.20
2022-12-06T16:19:03.648Z,-1.20
2022-12-06T16:20:31.121Z,-1.20
2022-12-06T16:21:35.243Z,-1.10
2022-12-06T16:23:01.991Z,-1.10
2022-12-06T16:24:15.267Z,-1.20
2022-12-06T16:25:17.582Z,-1.20
2022-12-06T16:26:21.394Z,-1.10
2022-12-06T16:27:23.214Z,-1.10
2022-12-06T16:28:30.567Z,-1.10
2022-12-06T16:29:35.488Z,-1.10
2022-12-06T16:30:39.266Z,-1.20
2022-12-06T16:31:41.361Z,-1.20
2022-12-06T16:32:43.278Z,-1.10
2022-12-06T16:33:44.956Z,-1.10
2022-12-06T16:34:46.606Z,-1.10
2022-12-06T16:35:48.282Z,-1.10
2022-12-06T16:37:03.696Z,-1.10
2022-12-06T16:38:05.377Z,-1.00
2022-12-06T16:39:07.263Z,-1.00
2022-12-06T16:40:15.242Z,-1.00
2022-12-06T16:41:21.017Z,-1.00
2022-12-06T16:42:22.809Z,-1.00
2022-12-06T16:43:24.418Z,-1.00
2022-12-06T16:44:26.351Z,-0.90
2022-12-06T16:45:27.996Z,-0.70
2022-12-06T16:46:31.052Z,-0.50
2022-12-06T16:47:32.818Z,-0.60
2022-12-06T16:48:35.454Z,-0.70
2022-12-06T16:49:48.304Z,-0.70
2022-12-06T16:50:50.273Z,-0.80
2022-12-06T16:51:52.285Z,-0.80
2022-12-06T16:52:54.391Z,-0.80
2022-12-06T16:53:56.113Z,-0.80
2022-12-06T16:54:57.753Z,-0.90
2022-12-06T16:55:59.474Z,-0.90
2022-12-06T16:57:01.275Z,-0.90
2022-12-06T16:58:03.166Z,-0.90
2022-12-06T16:59:04.917Z,-0.90
2022-12-06T17:00:06.870Z,-0.90
2022-12-06T17:01:25.110Z,-0.90
2022-12-06T17:02:31.847Z,-0.90
2022-12-06T17:03:33.563Z,-0.90
2022-12-06T17:04:35.271Z,-0.90
2022-12-06T17:05:37.361Z,-0.90
2022-12-06T17:06:39.215Z,-0.90
2022-12-06T17:07:41.162Z,-0.90
2022-12-06T17:08:42.895Z,-0.90
2022-12-06T17:09:44.682Z,-0.90
2022-12-06T17:10:46.299Z,-0.90
2022-12-06T17:12:03.299Z,-1.00
2022-12-06T17:13:04.929Z,-0.90
2022-12-06T17:14:06.776Z,-0.90
2022-12-06T17:15:11.788Z,-0.90
2022-12-06T17:16:13.745Z,-0.90
2022-12-06T17:17:16.441Z,-0.90
2022-12-06T17:18:18.444Z,-0.90
2022-12-06T17:19:21.647Z,-0.90
2022-12-06T17:20:23.314Z,-0.90
2022-12-06T17:21:25.115Z,-0.80
2022-12-06T17:22:26.825Z,-0.90
2022-12-06T17:23:28.419Z,-0.90
2022-12-06T17:24:30.210Z,-0.90
2022-12-06T17:25:31.902Z,-0.90
2022-12-06T17:26:36.117Z,-0.90
2022-12-06T17:27:38.609Z,-0.90
2022-12-06T17:28:40.306Z,-0.90
2022-12-06T17:29:42.717Z,-0.90
2022-12-06T17:30:50.736Z,-0.90
2022-12-06T17:31:53.468Z,-0.90
2022-12-06T17:32:55.246Z,-0.90
2022-12-06T17:33:57.803Z,-0.90
2022-12-06T17:35:03.684Z,-0.90
2022-12-06T17:36:13.507Z,-0.90
2022-12-06T17:37:15.931Z,-0.90
2022-12-06T17:38:17.801Z,-0.90
2022-12-06T17:39:20.607Z,-0.90
2022-12-06T17:40:22.314Z,-0.90
2022-12-06T17:41:48.415Z,-0.90
2022-12-06T17:42:59.364Z,-0.90
2022-12-06T17:44:03.030Z,-0.90
2022-12-06T17:45:05.730Z,-0.90
2022-12-06T17:46:08.373Z,-0.90
2022-12-06T17:47:10.432Z,-0.90
2022-12-06T17:48:12.274Z,-0.90
2022-12-06T17:49:15.306Z,-0.80
2022-12-06T17:50:16.977Z,-0.90
2022-12-06T17:51:18.633Z,-0.80
2022-12-06T17:52:20.433Z,-0.90
2022-12-06T17:53:22.217Z,-0.90
2022-12-06T17:54:24.091Z,-0.90
2022-12-06T17:55:25.829Z,-0.90
2022-12-06T17:56:57.111Z,-0.90
2022-12-06T17:57:58.740Z,-0.90
2022-12-06T17:59:05.111Z,-0.90
2022-12-06T18:00:07.288Z,-0.90
2022-12-06T18:01:09.086Z,-0.90
2022-12-06T18:02:16.189Z,-0.90
2022-12-06T18:03:18.975Z,-0.90
2022-12-06T18:04:20.704Z,-0.90
2022-12-06T18:05:22.341Z,-0.90
2022-12-06T18:06:25.595Z,-0.90
2022-12-06T18:07:27.204Z,-0.90
2022-12-06T18:08:28.824Z,-0.90
2022-12-06T18:09:30.481Z,-0.80
2022-12-06T18:10:35.376Z,-0.90
2022-12-06T18:11:37.468Z,-0.80
2022-12-06T18:12:41.780Z,-0.80
2022-12-06T18:13:44.375Z,-0.90
2022-12-06T18:14:46.676Z,-0.80
2022-12-06T18:15:48.500Z,-0.90
2022-12-06T18:16:50.895Z,-0.90
2022-12-06T18:17:54.094Z,-0.80
2022-12-06T18:18:57.823Z,-0.80
2022-12-06T18:20:00.798Z,-0.90
2022-12-06T18:21:05.394Z,-0.80
2022-12-06T18:22:13.432Z,-0.80
2022-12-06T18:23:15.090Z,-0.80
2022-12-06T18:24:22.507Z,-0.80
2022-12-06T18:25:26.017Z,-0.80
2022-12-06T18:26:28.799Z,-0.80
2022-12-06T18:27:30.616Z,-0.80
2022-12-06T18:28:32.401Z,-0.80
2022-12-06T18:29:34.960Z,-0.70
2022-12-06T18:30:36.800Z,-0.80
2022-12-06T18:31:38.787Z,-0.80
2022-12-06T18:32:40.575Z,-0.80
2022-12-06T18:33:42.662Z,-0.70
2022-12-06T18:34:44.712Z,-0.70
2022-12-06T18:35:46.592Z,-0.70
2022-12-06T18:36:48.563Z,-0.60
2022-12-06T18:37:50.468Z,-0.50
2022-12-06T18:38:52.409Z,-0.50
2022-12-06T18:39:54.860Z,-0.50
2022-12-06T18:41:04.525Z,-0.40
2022-12-06T18:42:06.319Z,-0.50
2022-12-06T18:43:08.180Z,-0.50
2022-12-06T18:44:10.383Z,-0.50
2022-12-06T18:45:12.053Z,-0.50
2022-12-06T18:46:15.798Z,-0.40
2022-12-06T18:47:17.935Z,-0.40
2022-12-06T18:48:20.104Z,-0.50
2022-12-06T18:49:21.982Z,-0.40
2022-12-06T18:50:23.811Z,-0.50
2022-12-06T18:51:29.883Z,-0.50
2022-12-06T18:52:32.200Z,-0.50
2022-12-06T18:53:34.106Z,-0.40
2022-12-06T18:54:36.683Z,-0.40
2022-12-06T18:55:38.450Z,-0.50
2022-12-06T18:56:40.346Z,-0.50
2022-12-06T18:57:42.053Z,-0.50
2022-12-06T18:58:43.950Z,-0.50
2022-12-06T18:59:45.893Z,-0.50
2022-12-06T19:00:48.312Z,-0.40
2022-12-06T19:01:50.377Z,-0.30
2022-12-06T19:02:52.283Z,-0.30
2022-12-06T19:03:54.997Z,-0.30
2022-12-06T19:04:56.619Z,-0.30
2022-12-06T19:06:03.238Z,-0.30
2022-12-06T19:07:05.893Z,-0.30
2022-12-06T19:08:08.701Z,-0.40
2022-12-06T19:09:12.153Z,-0.30
2022-12-06T19:10:13.952Z,-0.30
2022-12-06T19:11:19.102Z,-0.30
2022-12-06T19:12:20.934Z,-0.30
2022-12-06T19:13:22.775Z,-0.40
2022-12-06T19:14:24.444Z,-0.40
2022-12-06T19:15:26.436Z,-0.30
2022-12-06T19:16:42.484Z,-0.40
2022-12-06T19:17:47.284Z,-0.40
2022-12-06T19:19:05.122Z,-0.50
2022-12-06T19:20:10.203Z,-0.50
2022-12-06T19:21:12.564Z,-0.50
2022-12-06T19:22:48.576Z,-0.60
2022-12-06T19:24:04.276Z,-0.60
2022-12-06T19:25:11.240Z,-0.60
2022-12-06T19:26:18.117Z,-0.60
2022-12-06T19:27:25.920Z,-0.70
2022-12-06T19:28:33.438Z,-0.50
2022-12-06T19:29:39.795Z,-0.50
2022-12-06T19:31:09.123Z,-0.60
2022-12-06T19:32:12.051Z,-0.60
2022-12-06T19:33:17.886Z,-0.70
2022-12-06T19:37:06.871Z,-0.60
2022-12-06T19:38:08.806Z,-0.60
2022-12-06T19:39:11.353Z,-0.60
2022-12-06T19:40:13.314Z,-0.70
2022-12-06T19:41:24.783Z,-0.70
2022-12-06T19:42:45.110Z,-0.60
2022-12-06T19:44:05.853Z,-0.70
2022-12-06T19:45:08.239Z,-0.60
2022-12-06T19:46:11.135Z,-0.60
2022-12-06T19:47:14.052Z,-0.60
2022-12-06T19:48:16.300Z,-0.70
2022-12-06T19:49:19.586Z,-0.60
2022-12-06T19:50:21.614Z,-0.60
2022-12-06T19:51:23.878Z,-0.60
2022-12-06T19:52:30.671Z,-0.60
2022-12-06T19:53:34.347Z,-0.70
2022-12-06T19:54:37.403Z,-0.60
2022-12-06T19:55:45.330Z,-0.60
2022-12-06T19:56:49.496Z,-0.60
2022-12-06T19:57:51.589Z,-0.70
2022-12-06T19:58:55.438Z,-0.60
2022-12-06T19:59:57.563Z,-0.60
2022-12-06T20:00:59.368Z,-0.60
2022-12-06T20:02:01.410Z,-0.70
2022-12-06T20:03:03.399Z,-0.70
2022-12-06T20:04:05.339Z,-0.60
2022-12-06T20:05:07.422Z,-0.70
2022-12-06T20:06:17.901Z,-0.60
2022-12-06T20:07:20.083Z,-0.60
2022-12-06T20:08:21.996Z,-0.60
2022-12-06T20:09:29.514Z,-0.60
2022-12-06T20:10:35.107Z,-0.60
2022-12-06T20:11:56.317Z,-0.60
2022-12-06T20:12:58.085Z,-0.70
2022-12-06T20:14:00.417Z,-0.60
2022-12-06T20:15:02.244Z,-0.60
2022-12-06T20:16:04.556Z,-0.60
2022-12-06T20:17:10.609Z,-0.60
2022-12-06T20:18:12.361Z,-0.60
2022-12-06T20:19:17.679Z,-0.60
2022-12-06T20:20:19.524Z,-0.60
2022-12-06T20:21:21.911Z,-0.60
2022-12-06T20:22:23.675Z,-0.70
2022-12-06T20:23:26.067Z,-0.70
2022-12-06T20:24:27.920Z,-0.60
2022-12-06T20:25:50.228Z,-0.70
2022-12-06T20:26:53.622Z,-0.70
2022-12-06T20:27:56.955Z,-0.60